sensor_id;sensor_type;location;lat;lon;timestamp;P1;durP1;ratioP1;P2;durP2;ratioP2
9485;SDS011;4781;48.776;9.200;2023-06-24T00:01:47;5.95;;;3.90;;
9485;SDS011;4781;48.776;9.200;2023-06-24T00:04:16;6.85;;;3.85;;
9485;SDS011;4781;48.776;9.200;2023-06-24T00:06:44;6.67;;;4.00;;
9485;SDS011;4781;48.776;9.200;2023-06-24T00:09:13;6.00;;;4.00;;
9485;SDS011;4781;48.776;9.200;2023-06-24T00:11:41;6.45;;;3.83;;
9485;SDS011;4781;48.776;9.200;2023-06-24T00:14:10;6.75;;;3.72;;
9485;SDS011;4781;48.776;9.200;2023-06-24T00:16:40;6.65;;;4.37;;
9485;SDS011;4781;48.776;9.200;2023-06-24T00:19:08;6.85;;;4.58;;
9485;SDS011;4781;48.776;9.200;2023-06-24T00:21:36;6.22;;;3.77;;
9485;SDS011;4781;48.776;9.200;2023-06-24T00:24:05;6.28;;;3.83;;
9485;SDS011;4781;48.776;9.200;2023-06-24T00:26:35;6.15;;;3.90;;
9485;SDS011;4781;48.776;9.200;2023-06-24T00:29:03;5.62;;;4.00;;
9485;SDS011;4781;48.776;9.200;2023-06-24T00:31:31;6.50;;;4.03;;
9485;SDS011;4781;48.776;9.200;2023-06-24T00:34:00;6.10;;;3.65;;
9485;SDS011;4781;48.776;9.200;2023-06-24T00:36:28;7.28;;;3.92;;
9485;SDS011;4781;48.776;9.200;2023-06-24T00:38:58;6.17;;;4.00;;
9485;SDS011;4781;48.776;9.200;2023-06-24T00:41:30;5.60;;;4.20;;
9485;SDS011;4781;48.776;9.200;2023-06-24T00:44:00;5.87;;;4.22;;
9485;SDS011;4781;48.776;9.200;2023-06-24T00:46:29;6.15;;;3.60;;
9485;SDS011;4781;48.776;9.200;2023-06-24T00:48:59;6.78;;;4.12;;
9485;SDS011;4781;48.776;9.200;2023-06-24T00:51:28;6.78;;;4.08;;
9485;SDS011;4781;48.776;9.200;2023-06-24T00:53:58;5.37;;;3.75;;
9485;SDS011;4781;48.776;9.200;2023-06-24T00:56:31;5.40;;;4.10;;
9485;SDS011;4781;48.776;9.200;2023-06-24T00:59:03;6.37;;;4.33;;
9485;SDS011;4781;48.776;9.200;2023-06-24T01:01:34;7.47;;;4.33;;
9485;SDS011;4781;48.776;9.200;2023-06-24T01:04:03;6.28;;;4.03;;
9485;SDS011;4781;48.776;9.200;2023-06-24T01:06:34;6.22;;;4.28;;
9485;SDS011;4781;48.776;9.200;2023-06-24T01:09:05;6.80;;;4.45;;
9485;SDS011;4781;48.776;9.200;2023-06-24T01:11:33;7.42;;;4.40;;
9485;SDS011;4781;48.776;9.200;2023-06-24T01:14:02;8.18;;;4.20;;
9485;SDS011;4781;48.776;9.200;2023-06-24T01:22:19;8.03;;;4.17;;
9485;SDS011;4781;48.776;9.200;2023-06-24T01:31:34;7.95;;;5.03;;
9485;SDS011;4781;48.776;9.200;2023-06-24T01:34:14;8.15;;;4.85;;
9485;SDS011;4781;48.776;9.200;2023-06-24T01:36:54;6.30;;;4.40;;
9485;SDS011;4781;48.776;9.200;2023-06-24T01:39:24;6.45;;;4.60;;
9485;SDS011;4781;48.776;9.200;2023-06-24T01:41:58;8.05;;;5.37;;
9485;SDS011;4781;48.776;9.200;2023-06-24T01:44:27;8.88;;;4.90;;
9485;SDS011;4781;48.776;9.200;2023-06-24T01:46:57;7.15;;;5.03;;
9485;SDS011;4781;48.776;9.200;2023-06-24T01:49:32;8.93;;;5.50;;
9485;SDS011;4781;48.776;9.200;2023-06-24T01:51:59;8.00;;;5.25;;
9485;SDS011;4781;48.776;9.200;2023-06-24T01:54:28;8.45;;;5.37;;
9485;SDS011;4781;48.776;9.200;2023-06-24T01:56:58;8.05;;;5.22;;
9485;SDS011;4781;48.776;9.200;2023-06-24T01:59:28;7.35;;;5.30;;
9485;SDS011;4781;48.776;9.200;2023-06-24T02:01:57;7.97;;;5.12;;
9485;SDS011;4781;48.776;9.200;2023-06-24T02:04:26;8.58;;;5.05;;
9485;SDS011;4781;48.776;9.200;2023-06-24T02:07:00;7.00;;;4.83;;
9485;SDS011;4781;48.776;9.200;2023-06-24T02:09:31;9.07;;;5.10;;
9485;SDS011;4781;48.776;9.200;2023-06-24T02:12:01;8.48;;;4.67;;
9485;SDS011;4781;48.776;9.200;2023-06-24T02:14:30;7.67;;;5.12;;
9485;SDS011;4781;48.776;9.200;2023-06-24T02:17:02;8.90;;;5.10;;
9485;SDS011;4781;48.776;9.200;2023-06-24T02:19:33;7.35;;;5.20;;
9485;SDS011;4781;48.776;9.200;2023-06-24T02:22:02;8.00;;;5.28;;
9485;SDS011;4781;48.776;9.200;2023-06-24T02:24:34;8.43;;;5.10;;
9485;SDS011;4781;48.776;9.200;2023-06-24T02:27:04;7.87;;;5.10;;
9485;SDS011;4781;48.776;9.200;2023-06-24T02:29:33;7.20;;;4.78;;
9485;SDS011;4781;48.776;9.200;2023-06-24T02:32:03;7.10;;;5.23;;
9485;SDS011;4781;48.776;9.200;2023-06-24T02:34:32;6.87;;;5.08;;
9485;SDS011;4781;48.776;9.200;2023-06-24T02:37:01;7.55;;;4.75;;
9485;SDS011;4781;48.776;9.200;2023-06-24T02:39:30;7.47;;;4.90;;
9485;SDS011;4781;48.776;9.200;2023-06-24T02:41:58;7.00;;;4.87;;
9485;SDS011;4781;48.776;9.200;2023-06-24T02:44:27;8.08;;;4.83;;
9485;SDS011;4781;48.776;9.200;2023-06-24T02:46:55;7.08;;;4.75;;
9485;SDS011;4781;48.776;9.200;2023-06-24T02:49:24;6.37;;;4.53;;
9485;SDS011;4781;48.776;9.200;2023-06-24T02:51:54;6.80;;;4.92;;
9485;SDS011;4781;48.776;9.200;2023-06-24T02:54:22;6.70;;;4.97;;
9485;SDS011;4781;48.776;9.200;2023-06-24T02:56:51;7.35;;;5.28;;
9485;SDS011;4781;48.776;9.200;2023-06-24T02:59:21;8.15;;;5.30;;
9485;SDS011;4781;48.776;9.200;2023-06-24T03:01:50;8.05;;;5.12;;
9485;SDS011;4781;48.776;9.200;2023-06-24T03:04:20;6.40;;;4.83;;
9485;SDS011;4781;48.776;9.200;2023-06-24T03:06:49;9.35;;;5.03;;
9485;SDS011;4781;48.776;9.200;2023-06-24T03:09:18;6.70;;;5.12;;
9485;SDS011;4781;48.776;9.200;2023-06-24T03:11:46;7.83;;;4.95;;
9485;SDS011;4781;48.776;9.200;2023-06-24T03:14:15;7.80;;;4.90;;
9485;SDS011;4781;48.776;9.200;2023-06-24T03:16:43;7.12;;;4.90;;
9485;SDS011;4781;48.776;9.200;2023-06-24T03:19:12;7.45;;;4.87;;
9485;SDS011;4781;48.776;9.200;2023-06-24T03:21:40;7.00;;;4.87;;
9485;SDS011;4781;48.776;9.200;2023-06-24T03:24:08;6.37;;;4.90;;
9485;SDS011;4781;48.776;9.200;2023-06-24T03:26:37;6.90;;;5.15;;
9485;SDS011;4781;48.776;9.200;2023-06-24T03:29:07;7.95;;;5.33;;
9485;SDS011;4781;48.776;9.200;2023-06-24T03:31:35;9.63;;;6.30;;
9485;SDS011;4781;48.776;9.200;2023-06-24T03:34:05;9.83;;;6.10;;
9485;SDS011;4781;48.776;9.200;2023-06-24T03:36:34;9.73;;;6.10;;
9485;SDS011;4781;48.776;9.200;2023-06-24T03:39:04;8.75;;;6.30;;
9485;SDS011;4781;48.776;9.200;2023-06-24T03:41:33;8.98;;;6.30;;
9485;SDS011;4781;48.776;9.200;2023-06-24T03:44:01;9.80;;;6.58;;
9485;SDS011;4781;48.776;9.200;2023-06-24T03:46:30;8.25;;;6.30;;
9485;SDS011;4781;48.776;9.200;2023-06-24T03:48:59;9.38;;;6.30;;
9485;SDS011;4781;48.776;9.200;2023-06-24T03:51:27;9.28;;;6.50;;
9485;SDS011;4781;48.776;9.200;2023-06-24T03:53:55;7.85;;;5.95;;
9485;SDS011;4781;48.776;9.200;2023-06-24T03:56:24;7.40;;;5.37;;
9485;SDS011;4781;48.776;9.200;2023-06-24T03:58:52;9.53;;;5.35;;
9485;SDS011;4781;48.776;9.200;2023-06-24T04:01:21;8.33;;;5.35;;
9485;SDS011;4781;48.776;9.200;2023-06-24T04:03:49;7.37;;;5.42;;
9485;SDS011;4781;48.776;9.200;2023-06-24T04:06:17;7.72;;;5.50;;
9485;SDS011;4781;48.776;9.200;2023-06-24T04:08:46;6.70;;;4.65;;
9485;SDS011;4781;48.776;9.200;2023-06-24T04:11:14;7.15;;;5.10;;
9485;SDS011;4781;48.776;9.200;2023-06-24T04:13:43;7.78;;;5.15;;
9485;SDS011;4781;48.776;9.200;2023-06-24T04:16:14;7.60;;;5.47;;
9485;SDS011;4781;48.776;9.200;2023-06-24T04:18:42;7.37;;;5.33;;
9485;SDS011;4781;48.776;9.200;2023-06-24T04:21:11;7.75;;;5.08;;
9485;SDS011;4781;48.776;9.200;2023-06-24T04:23:40;7.12;;;4.90;;
9485;SDS011;4781;48.776;9.200;2023-06-24T04:26:08;7.97;;;5.42;;
9485;SDS011;4781;48.776;9.200;2023-06-24T04:28:37;7.35;;;4.85;;
9485;SDS011;4781;48.776;9.200;2023-06-24T04:31:06;6.22;;;4.83;;
9485;SDS011;4781;48.776;9.200;2023-06-24T04:33:34;6.72;;;5.08;;
9485;SDS011;4781;48.776;9.200;2023-06-24T04:36:02;6.87;;;4.97;;
9485;SDS011;4781;48.776;9.200;2023-06-24T04:38:31;9.13;;;5.62;;
9485;SDS011;4781;48.776;9.200;2023-06-24T04:40:59;7.28;;;5.28;;
9485;SDS011;4781;48.776;9.200;2023-06-24T04:43:28;7.60;;;5.30;;
9485;SDS011;4781;48.776;9.200;2023-06-24T04:45:56;8.40;;;5.20;;
9485;SDS011;4781;48.776;9.200;2023-06-24T04:48:25;7.40;;;4.80;;
9485;SDS011;4781;48.776;9.200;2023-06-24T04:50:54;7.45;;;5.62;;
9485;SDS011;4781;48.776;9.200;2023-06-24T04:53:23;8.28;;;5.03;;
9485;SDS011;4781;48.776;9.200;2023-06-24T04:55:52;7.65;;;5.20;;
9485;SDS011;4781;48.776;9.200;2023-06-24T04:58:20;8.53;;;5.72;;
9485;SDS011;4781;48.776;9.200;2023-06-24T05:00:49;7.53;;;5.67;;
9485;SDS011;4781;48.776;9.200;2023-06-24T05:03:17;10.32;;;5.87;;
9485;SDS011;4781;48.776;9.200;2023-06-24T05:05:46;10.65;;;5.45;;
9485;SDS011;4781;48.776;9.200;2023-06-24T05:08:15;8.10;;;5.97;;
9485;SDS011;4781;48.776;9.200;2023-06-24T05:10:43;8.75;;;5.87;;
9485;SDS011;4781;48.776;9.200;2023-06-24T05:13:11;9.38;;;5.85;;
9485;SDS011;4781;48.776;9.200;2023-06-24T05:15:40;9.03;;;5.90;;
9485;SDS011;4781;48.776;9.200;2023-06-24T05:18:08;10.35;;;6.03;;
9485;SDS011;4781;48.776;9.200;2023-06-24T05:20:36;7.85;;;5.67;;
9485;SDS011;4781;48.776;9.200;2023-06-24T05:23:05;10.20;;;5.90;;
9485;SDS011;4781;48.776;9.200;2023-06-24T05:25:33;7.95;;;5.20;;
9485;SDS011;4781;48.776;9.200;2023-06-24T05:28:02;7.65;;;5.37;;
9485;SDS011;4781;48.776;9.200;2023-06-24T05:30:30;8.17;;;4.83;;
9485;SDS011;4781;48.776;9.200;2023-06-24T05:32:58;6.90;;;5.08;;
9485;SDS011;4781;48.776;9.200;2023-06-24T05:35:27;7.15;;;4.87;;
9485;SDS011;4781;48.776;9.200;2023-06-24T05:37:55;6.92;;;5.17;;
9485;SDS011;4781;48.776;9.200;2023-06-24T05:40:24;8.13;;;5.50;;
9485;SDS011;4781;48.776;9.200;2023-06-24T05:42:52;8.18;;;5.28;;
9485;SDS011;4781;48.776;9.200;2023-06-24T05:45:20;8.43;;;5.25;;
9485;SDS011;4781;48.776;9.200;2023-06-24T05:47:49;6.87;;;5.40;;
9485;SDS011;4781;48.776;9.200;2023-06-24T05:50:17;8.65;;;5.22;;
9485;SDS011;4781;48.776;9.200;2023-06-24T05:52:46;6.80;;;5.15;;
9485;SDS011;4781;48.776;9.200;2023-06-24T05:55:14;7.70;;;5.28;;
9485;SDS011;4781;48.776;9.200;2023-06-24T05:57:42;6.60;;;4.85;;
9485;SDS011;4781;48.776;9.200;2023-06-24T06:00:11;7.83;;;4.77;;
9485;SDS011;4781;48.776;9.200;2023-06-24T06:02:39;7.22;;;4.95;;
9485;SDS011;4781;48.776;9.200;2023-06-24T06:05:08;6.92;;;4.97;;
9485;SDS011;4781;48.776;9.200;2023-06-24T06:07:36;7.20;;;4.80;;
9485;SDS011;4781;48.776;9.200;2023-06-24T06:10:05;7.05;;;4.60;;
9485;SDS011;4781;48.776;9.200;2023-06-24T06:12:34;6.75;;;4.55;;
9485;SDS011;4781;48.776;9.200;2023-06-24T06:15:03;7.25;;;4.37;;
9485;SDS011;4781;48.776;9.200;2023-06-24T06:17:32;7.55;;;4.53;;
9485;SDS011;4781;48.776;9.200;2023-06-24T06:20:00;8.53;;;4.50;;
9485;SDS011;4781;48.776;9.200;2023-06-24T06:22:29;5.40;;;3.60;;
9485;SDS011;4781;48.776;9.200;2023-06-24T06:24:58;4.90;;;3.52;;
9485;SDS011;4781;48.776;9.200;2023-06-24T06:27:26;6.12;;;4.20;;
9485;SDS011;4781;48.776;9.200;2023-06-24T06:29:54;5.42;;;3.72;;
9485;SDS011;4781;48.776;9.200;2023-06-24T06:32:23;6.55;;;3.92;;
9485;SDS011;4781;48.776;9.200;2023-06-24T06:34:51;5.47;;;3.70;;
9485;SDS011;4781;48.776;9.200;2023-06-24T06:37:20;6.95;;;3.65;;
9485;SDS011;4781;48.776;9.200;2023-06-24T06:39:48;7.60;;;3.72;;
9485;SDS011;4781;48.776;9.200;2023-06-24T06:42:16;5.92;;;3.60;;
9485;SDS011;4781;48.776;9.200;2023-06-24T06:44:45;5.72;;;4.08;;
9485;SDS011;4781;48.776;9.200;2023-06-24T06:47:13;5.87;;;4.00;;
9485;SDS011;4781;48.776;9.200;2023-06-24T06:49:41;5.95;;;3.75;;
9485;SDS011;4781;48.776;9.200;2023-06-24T06:52:10;7.53;;;3.77;;
9485;SDS011;4781;48.776;9.200;2023-06-24T06:54:38;7.30;;;3.98;;
9485;SDS011;4781;48.776;9.200;2023-06-24T06:57:07;5.75;;;3.80;;
9485;SDS011;4781;48.776;9.200;2023-06-24T06:59:35;5.95;;;3.60;;
9485;SDS011;4781;48.776;9.200;2023-06-24T07:02:03;7.47;;;3.22;;
9485;SDS011;4781;48.776;9.200;2023-06-24T07:04:33;5.17;;;3.40;;
9485;SDS011;4781;48.776;9.200;2023-06-24T07:07:01;5.20;;;3.40;;
9485;SDS011;4781;48.776;9.200;2023-06-24T07:09:29;5.45;;;3.85;;
9485;SDS011;4781;48.776;9.200;2023-06-24T07:11:58;5.30;;;3.55;;
9485;SDS011;4781;48.776;9.200;2023-06-24T07:14:26;6.12;;;3.42;;
9485;SDS011;4781;48.776;9.200;2023-06-24T07:16:55;6.15;;;3.83;;
9485;SDS011;4781;48.776;9.200;2023-06-24T07:19:23;6.85;;;3.67;;
9485;SDS011;4781;48.776;9.200;2023-06-24T07:21:51;8.20;;;3.90;;
9485;SDS011;4781;48.776;9.200;2023-06-24T07:24:20;7.33;;;3.92;;
9485;SDS011;4781;48.776;9.200;2023-06-24T07:26:48;5.35;;;3.65;;
9485;SDS011;4781;48.776;9.200;2023-06-24T07:29:17;6.62;;;3.60;;
9485;SDS011;4781;48.776;9.200;2023-06-24T07:31:45;6.37;;;3.72;;
9485;SDS011;4781;48.776;9.200;2023-06-24T07:34:14;5.53;;;3.72;;
9485;SDS011;4781;48.776;9.200;2023-06-24T07:36:42;5.55;;;3.67;;
9485;SDS011;4781;48.776;9.200;2023-06-24T07:39:11;5.65;;;3.65;;
9485;SDS011;4781;48.776;9.200;2023-06-24T07:41:39;4.87;;;3.45;;
9485;SDS011;4781;48.776;9.200;2023-06-24T07:44:08;7.58;;;4.12;;
9485;SDS011;4781;48.776;9.200;2023-06-24T07:46:36;5.78;;;3.72;;
9485;SDS011;4781;48.776;9.200;2023-06-24T07:49:05;6.60;;;3.58;;
9485;SDS011;4781;48.776;9.200;2023-06-24T07:51:33;5.47;;;3.77;;
9485;SDS011;4781;48.776;9.200;2023-06-24T07:54:02;4.80;;;3.22;;
9485;SDS011;4781;48.776;9.200;2023-06-24T07:56:30;5.53;;;3.40;;
9485;SDS011;4781;48.776;9.200;2023-06-24T07:58:58;5.33;;;3.47;;
9485;SDS011;4781;48.776;9.200;2023-06-24T08:01:27;5.17;;;3.40;;
9485;SDS011;4781;48.776;9.200;2023-06-24T08:03:56;4.97;;;3.62;;
9485;SDS011;4781;48.776;9.200;2023-06-24T08:06:24;5.87;;;3.50;;
9485;SDS011;4781;48.776;9.200;2023-06-24T08:08:52;5.30;;;3.55;;
9485;SDS011;4781;48.776;9.200;2023-06-24T08:11:21;5.30;;;3.83;;
9485;SDS011;4781;48.776;9.200;2023-06-24T08:13:49;5.47;;;3.60;;
9485;SDS011;4781;48.776;9.200;2023-06-24T08:16:18;4.95;;;3.40;;
9485;SDS011;4781;48.776;9.200;2023-06-24T08:18:46;5.25;;;3.55;;
9485;SDS011;4781;48.776;9.200;2023-06-24T08:21:14;6.75;;;3.72;;
9485;SDS011;4781;48.776;9.200;2023-06-24T08:23:43;5.25;;;3.37;;
9485;SDS011;4781;48.776;9.200;2023-06-24T08:26:12;6.65;;;3.47;;
9485;SDS011;4781;48.776;9.200;2023-06-24T08:28:40;4.90;;;3.40;;
9485;SDS011;4781;48.776;9.200;2023-06-24T08:31:08;5.28;;;3.52;;
9485;SDS011;4781;48.776;9.200;2023-06-24T08:33:37;7.03;;;3.60;;
9485;SDS011;4781;48.776;9.200;2023-06-24T08:36:05;4.62;;;3.00;;
9485;SDS011;4781;48.776;9.200;2023-06-24T08:38:34;4.87;;;3.40;;
9485;SDS011;4781;48.776;9.200;2023-06-24T08:41:02;4.45;;;2.98;;
9485;SDS011;4781;48.776;9.200;2023-06-24T08:43:30;5.10;;;3.20;;
9485;SDS011;4781;48.776;9.200;2023-06-24T08:45:59;6.03;;;3.30;;
9485;SDS011;4781;48.776;9.200;2023-06-24T08:48:27;6.20;;;3.40;;
9485;SDS011;4781;48.776;9.200;2023-06-24T08:50:58;5.95;;;3.10;;
9485;SDS011;4781;48.776;9.200;2023-06-24T08:53:28;5.55;;;3.20;;
9485;SDS011;4781;48.776;9.200;2023-06-24T08:55:57;5.00;;;3.20;;
9485;SDS011;4781;48.776;9.200;2023-06-24T08:58:26;5.10;;;3.20;;
9485;SDS011;4781;48.776;9.200;2023-06-24T09:00:54;5.25;;;3.22;;
9485;SDS011;4781;48.776;9.200;2023-06-24T09:03:24;4.95;;;3.58;;
9485;SDS011;4781;48.776;9.200;2023-06-24T09:05:52;7.25;;;3.40;;
9485;SDS011;4781;48.776;9.200;2023-06-24T09:08:21;6.12;;;3.37;;
9485;SDS011;4781;48.776;9.200;2023-06-24T09:10:55;4.55;;;2.95;;
9485;SDS011;4781;48.776;9.200;2023-06-24T09:13:36;8.08;;;3.12;;
9485;SDS011;4781;48.776;9.200;2023-06-24T09:16:10;5.35;;;3.10;;
9485;SDS011;4781;48.776;9.200;2023-06-24T09:18:41;5.83;;;3.17;;
9485;SDS011;4781;48.776;9.200;2023-06-24T09:23:56;4.17;;;3.00;;
9485;SDS011;4781;48.776;9.200;2023-06-24T09:26:27;5.28;;;3.12;;
9485;SDS011;4781;48.776;9.200;2023-06-24T09:28:56;6.75;;;2.62;;
9485;SDS011;4781;48.776;9.200;2023-06-24T09:31:25;5.35;;;2.85;;
9485;SDS011;4781;48.776;9.200;2023-06-24T09:33:57;6.58;;;2.70;;
9485;SDS011;4781;48.776;9.200;2023-06-24T09:36:26;6.55;;;2.98;;
9485;SDS011;4781;48.776;9.200;2023-06-24T09:38:54;4.97;;;3.25;;
9485;SDS011;4781;48.776;9.200;2023-06-24T09:41:24;6.50;;;2.85;;
9485;SDS011;4781;48.776;9.200;2023-06-24T09:43:53;5.83;;;3.17;;
9485;SDS011;4781;48.776;9.200;2023-06-24T09:46:25;4.70;;;3.17;;
9485;SDS011;4781;48.776;9.200;2023-06-24T09:48:56;4.53;;;2.67;;
9485;SDS011;4781;48.776;9.200;2023-06-24T09:51:24;6.33;;;3.22;;
9485;SDS011;4781;48.776;9.200;2023-06-24T09:53:53;5.17;;;2.90;;
9485;SDS011;4781;48.776;9.200;2023-06-24T09:56:23;5.85;;;3.05;;
9485;SDS011;4781;48.776;9.200;2023-06-24T09:58:52;5.47;;;3.00;;
9485;SDS011;4781;48.776;9.200;2023-06-24T10:01:21;6.55;;;3.20;;
9485;SDS011;4781;48.776;9.200;2023-06-24T10:03:49;4.28;;;3.00;;
9485;SDS011;4781;48.776;9.200;2023-06-24T10:06:18;8.85;;;3.50;;
9485;SDS011;4781;48.776;9.200;2023-06-24T10:08:46;8.78;;;3.17;;
9485;SDS011;4781;48.776;9.200;2023-06-24T10:11:15;5.08;;;3.27;;
9485;SDS011;4781;48.776;9.200;2023-06-24T10:13:43;4.95;;;3.30;;
9485;SDS011;4781;48.776;9.200;2023-06-24T10:16:12;4.42;;;3.05;;
9485;SDS011;4781;48.776;9.200;2023-06-24T10:18:41;5.22;;;3.33;;
9485;SDS011;4781;48.776;9.200;2023-06-24T10:21:12;6.25;;;3.45;;
9485;SDS011;4781;48.776;9.200;2023-06-24T10:26:23;7.42;;;3.20;;
9485;SDS011;4781;48.776;9.200;2023-06-24T10:37:19;5.67;;;3.00;;
9485;SDS011;4781;48.776;9.200;2023-06-24T10:39:52;4.33;;;2.62;;
9485;SDS011;4781;48.776;9.200;2023-06-24T10:50:17;4.35;;;2.72;;
9485;SDS011;4781;48.776;9.200;2023-06-24T10:52:48;7.03;;;3.15;;
9485;SDS011;4781;48.776;9.200;2023-06-24T10:55:19;5.03;;;2.70;;
9485;SDS011;4781;48.776;9.200;2023-06-24T10:57:47;6.60;;;2.80;;
9485;SDS011;4781;48.776;9.200;2023-06-24T11:00:16;4.00;;;2.70;;
9485;SDS011;4781;48.776;9.200;2023-06-24T11:02:44;5.28;;;2.87;;
9485;SDS011;4781;48.776;9.200;2023-06-24T11:05:13;3.77;;;2.45;;
9485;SDS011;4781;48.776;9.200;2023-06-24T11:07:41;6.10;;;3.08;;
9485;SDS011;4781;48.776;9.200;2023-06-24T11:10:14;4.20;;;2.70;;
9485;SDS011;4781;48.776;9.200;2023-06-24T11:12:43;4.12;;;2.50;;
9485;SDS011;4781;48.776;9.200;2023-06-24T11:15:13;5.62;;;2.65;;
9485;SDS011;4781;48.776;9.200;2023-06-24T11:17:41;4.42;;;2.90;;
9485;SDS011;4781;48.776;9.200;2023-06-24T11:20:11;4.47;;;2.70;;
9485;SDS011;4781;48.776;9.200;2023-06-24T11:22:40;4.10;;;2.95;;
9485;SDS011;4781;48.776;9.200;2023-06-24T11:25:17;4.35;;;2.77;;
9485;SDS011;4781;48.776;9.200;2023-06-24T11:27:51;4.87;;;2.83;;
9485;SDS011;4781;48.776;9.200;2023-06-24T11:30:20;4.37;;;2.80;;
9485;SDS011;4781;48.776;9.200;2023-06-24T11:32:49;4.80;;;2.80;;
9485;SDS011;4781;48.776;9.200;2023-06-24T11:35:17;5.78;;;2.92;;
9485;SDS011;4781;48.776;9.200;2023-06-24T11:37:46;5.37;;;2.83;;
9485;SDS011;4781;48.776;9.200;2023-06-24T11:40:16;6.10;;;2.92;;
9485;SDS011;4781;48.776;9.200;2023-06-24T11:42:46;6.15;;;2.92;;
9485;SDS011;4781;48.776;9.200;2023-06-24T11:45:19;4.45;;;2.75;;
9485;SDS011;4781;48.776;9.200;2023-06-24T11:47:49;4.83;;;2.85;;
9485;SDS011;4781;48.776;9.200;2023-06-24T11:50:18;4.58;;;2.80;;
9485;SDS011;4781;48.776;9.200;2023-06-24T11:52:53;4.12;;;2.77;;
9485;SDS011;4781;48.776;9.200;2023-06-24T11:55:22;4.47;;;2.80;;
9485;SDS011;4781;48.776;9.200;2023-06-24T11:57:57;5.00;;;2.83;;
9485;SDS011;4781;48.776;9.200;2023-06-24T12:00:31;5.60;;;2.90;;
9485;SDS011;4781;48.776;9.200;2023-06-24T12:03:07;4.90;;;2.87;;
9485;SDS011;4781;48.776;9.200;2023-06-24T12:05:38;5.97;;;2.87;;
9485;SDS011;4781;48.776;9.200;2023-06-24T12:08:09;4.90;;;3.02;;
9485;SDS011;4781;48.776;9.200;2023-06-24T12:10:40;4.28;;;2.50;;
9485;SDS011;4781;48.776;9.200;2023-06-24T12:13:11;5.08;;;2.90;;
9485;SDS011;4781;48.776;9.200;2023-06-24T12:15:39;7.40;;;2.90;;
9485;SDS011;4781;48.776;9.200;2023-06-24T12:18:08;5.28;;;2.77;;
9485;SDS011;4781;48.776;9.200;2023-06-24T12:20:38;5.20;;;2.75;;
9485;SDS011;4781;48.776;9.200;2023-06-24T12:23:07;4.17;;;2.72;;
9485;SDS011;4781;48.776;9.200;2023-06-24T12:25:35;5.90;;;2.92;;
9485;SDS011;4781;48.776;9.200;2023-06-24T12:28:04;5.05;;;3.00;;
9485;SDS011;4781;48.776;9.200;2023-06-24T12:30:32;4.12;;;2.62;;
9485;SDS011;4781;48.776;9.200;2023-06-24T12:33:01;4.95;;;2.90;;
9485;SDS011;4781;48.776;9.200;2023-06-24T12:35:29;4.33;;;2.60;;
9485;SDS011;4781;48.776;9.200;2023-06-24T12:37:58;6.25;;;2.80;;
9485;SDS011;4781;48.776;9.200;2023-06-24T12:40:26;5.15;;;3.02;;
9485;SDS011;4781;48.776;9.200;2023-06-24T12:42:54;5.33;;;2.83;;
9485;SDS011;4781;48.776;9.200;2023-06-24T12:45:23;7.65;;;2.70;;
9485;SDS011;4781;48.776;9.200;2023-06-24T12:47:52;5.85;;;2.85;;
9485;SDS011;4781;48.776;9.200;2023-06-24T12:50:20;5.58;;;2.70;;
9485;SDS011;4781;48.776;9.200;2023-06-24T12:52:48;5.87;;;2.87;;
9485;SDS011;4781;48.776;9.200;2023-06-24T12:55:17;4.90;;;2.62;;
9485;SDS011;4781;48.776;9.200;2023-06-24T12:57:45;6.33;;;3.20;;
9485;SDS011;4781;48.776;9.200;2023-06-24T13:00:14;7.17;;;2.90;;
9485;SDS011;4781;48.776;9.200;2023-06-24T13:02:44;5.75;;;2.83;;
9485;SDS011;4781;48.776;9.200;2023-06-24T13:05:13;7.12;;;2.92;;
9485;SDS011;4781;48.776;9.200;2023-06-24T13:07:41;4.28;;;2.90;;
9485;SDS011;4781;48.776;9.200;2023-06-24T13:10:10;5.90;;;3.00;;
9485;SDS011;4781;48.776;9.200;2023-06-24T13:12:42;4.30;;;3.00;;
9485;SDS011;4781;48.776;9.200;2023-06-24T13:15:08;5.50;;;2.98;;
9485;SDS011;4781;48.776;9.200;2023-06-24T13:17:37;6.55;;;2.98;;
9485;SDS011;4781;48.776;9.200;2023-06-24T13:20:06;7.70;;;2.70;;
9485;SDS011;4781;48.776;9.200;2023-06-24T13:22:35;16.10;;;10.75;;
9485;SDS011;4781;48.776;9.200;2023-06-24T13:25:03;5.87;;;3.55;;
9485;SDS011;4781;48.776;9.200;2023-06-24T13:27:32;5.97;;;3.90;;
9485;SDS011;4781;48.776;9.200;2023-06-24T13:30:01;5.67;;;2.80;;
9485;SDS011;4781;48.776;9.200;2023-06-24T13:32:29;8.30;;;3.17;;
9485;SDS011;4781;48.776;9.200;2023-06-24T13:34:58;5.08;;;3.15;;
9485;SDS011;4781;48.776;9.200;2023-06-24T13:37:26;5.10;;;2.67;;
9485;SDS011;4781;48.776;9.200;2023-06-24T13:39:56;5.72;;;3.00;;
9485;SDS011;4781;48.776;9.200;2023-06-24T13:42:24;6.00;;;2.80;;
9485;SDS011;4781;48.776;9.200;2023-06-24T13:44:52;8.60;;;3.10;;
9485;SDS011;4781;48.776;9.200;2023-06-24T13:47:21;5.30;;;3.20;;
9485;SDS011;4781;48.776;9.200;2023-06-24T13:49:49;4.20;;;3.08;;
9485;SDS011;4781;48.776;9.200;2023-06-24T13:52:18;6.30;;;3.02;;
9485;SDS011;4781;48.776;9.200;2023-06-24T13:54:46;8.03;;;3.05;;
9485;SDS011;4781;48.776;9.200;2023-06-24T13:57:16;5.08;;;3.10;;
9485;SDS011;4781;48.776;9.200;2023-06-24T13:59:44;4.40;;;2.80;;
9485;SDS011;4781;48.776;9.200;2023-06-24T14:02:13;6.35;;;3.30;;
9485;SDS011;4781;48.776;9.200;2023-06-24T14:04:41;4.45;;;2.75;;
9485;SDS011;4781;48.776;9.200;2023-06-24T14:07:10;6.37;;;3.10;;
9485;SDS011;4781;48.776;9.200;2023-06-24T14:09:38;4.12;;;2.83;;
9485;SDS011;4781;48.776;9.200;2023-06-24T14:12:07;8.45;;;3.20;;
9485;SDS011;4781;48.776;9.200;2023-06-24T14:14:36;4.37;;;3.05;;
9485;SDS011;4781;48.776;9.200;2023-06-24T14:17:05;4.67;;;2.98;;
9485;SDS011;4781;48.776;9.200;2023-06-24T14:19:35;35.17;;;3.85;;
9485;SDS011;4781;48.776;9.200;2023-06-24T14:22:05;6.05;;;3.15;;
9485;SDS011;4781;48.776;9.200;2023-06-24T14:24:34;5.00;;;3.12;;
9485;SDS011;4781;48.776;9.200;2023-06-24T14:27:04;6.78;;;2.90;;
9485;SDS011;4781;48.776;9.200;2023-06-24T14:29:34;7.28;;;3.30;;
9485;SDS011;4781;48.776;9.200;2023-06-24T14:32:02;5.37;;;2.83;;
9485;SDS011;4781;48.776;9.200;2023-06-24T14:34:31;3.95;;;2.70;;
9485;SDS011;4781;48.776;9.200;2023-06-24T14:37:00;6.90;;;3.00;;
9485;SDS011;4781;48.776;9.200;2023-06-24T14:39:28;4.75;;;3.15;;
9485;SDS011;4781;48.776;9.200;2023-06-24T14:41:56;6.40;;;3.05;;
9485;SDS011;4781;48.776;9.200;2023-06-24T14:44:25;6.67;;;3.12;;
9485;SDS011;4781;48.776;9.200;2023-06-24T14:46:53;5.60;;;3.15;;
9485;SDS011;4781;48.776;9.200;2023-06-24T14:49:21;4.90;;;3.15;;
9485;SDS011;4781;48.776;9.200;2023-06-24T14:51:51;4.67;;;3.10;;
9485;SDS011;4781;48.776;9.200;2023-06-24T14:54:19;5.90;;;2.87;;
9485;SDS011;4781;48.776;9.200;2023-06-24T14:56:48;4.70;;;3.20;;
9485;SDS011;4781;48.776;9.200;2023-06-24T14:59:17;7.22;;;3.80;;
9485;SDS011;4781;48.776;9.200;2023-06-24T15:01:45;6.17;;;3.60;;
9485;SDS011;4781;48.776;9.200;2023-06-24T15:04:14;6.40;;;3.65;;
9485;SDS011;4781;48.776;9.200;2023-06-24T15:06:42;4.95;;;3.10;;
9485;SDS011;4781;48.776;9.200;2023-06-24T15:09:11;7.10;;;3.33;;
9485;SDS011;4781;48.776;9.200;2023-06-24T15:11:39;4.62;;;2.90;;
9485;SDS011;4781;48.776;9.200;2023-06-24T15:14:08;4.60;;;2.90;;
9485;SDS011;4781;48.776;9.200;2023-06-24T15:16:36;5.08;;;2.90;;
9485;SDS011;4781;48.776;9.200;2023-06-24T15:19:05;6.78;;;3.17;;
9485;SDS011;4781;48.776;9.200;2023-06-24T15:21:33;6.03;;;2.90;;
9485;SDS011;4781;48.776;9.200;2023-06-24T15:24:01;5.15;;;3.25;;
9485;SDS011;4781;48.776;9.200;2023-06-24T15:26:30;5.17;;;3.27;;
9485;SDS011;4781;48.776;9.200;2023-06-24T15:28:59;4.83;;;3.12;;
9485;SDS011;4781;48.776;9.200;2023-06-24T15:31:27;5.27;;;2.90;;
9485;SDS011;4781;48.776;9.200;2023-06-24T15:33:56;4.10;;;2.80;;
9485;SDS011;4781;48.776;9.200;2023-06-24T15:36:24;5.87;;;3.27;;
9485;SDS011;4781;48.776;9.200;2023-06-24T15:38:54;6.22;;;2.83;;
9485;SDS011;4781;48.776;9.200;2023-06-24T15:41:23;5.90;;;2.90;;
9485;SDS011;4781;48.776;9.200;2023-06-24T15:43:52;5.50;;;3.50;;
9485;SDS011;4781;48.776;9.200;2023-06-24T15:46:20;5.67;;;3.10;;
9485;SDS011;4781;48.776;9.200;2023-06-24T15:48:49;4.28;;;2.80;;
9485;SDS011;4781;48.776;9.200;2023-06-24T15:51:17;4.85;;;3.15;;
9485;SDS011;4781;48.776;9.200;2023-06-24T15:53:45;5.17;;;3.00;;
9485;SDS011;4781;48.776;9.200;2023-06-24T15:56:14;3.83;;;2.70;;
9485;SDS011;4781;48.776;9.200;2023-06-24T15:58:42;5.67;;;3.95;;
9485;SDS011;4781;48.776;9.200;2023-06-24T16:01:11;8.35;;;4.28;;